sensor_id;sensor_type;location;lat;lon;timestamp;P1;durP1;ratioP1;P2;durP2;ratioP2
19816;SDS011;68323;49.394;8.434;2023-06-24T00:02:19;6.70;;;5.27;;
19816;SDS011;68323;49.394;8.434;2023-06-24T00:04:45;9.80;;;5.93;;
19816;SDS011;68323;49.394;8.434;2023-06-24T00:07:11;9.07;;;5.93;;
19816;SDS011;68323;49.394;8.434;2023-06-24T00:09:36;12.00;;;5.97;;
19816;SDS011;68323;49.394;8.434;2023-06-24T00:12:02;12.60;;;5.90;;
19816;SDS011;68323;49.394;8.434;2023-06-24T00:14:28;7.50;;;5.40;;
19816;SDS011;68323;49.394;8.434;2023-06-24T00:16:54;8.00;;;5.33;;
19816;SDS011;68323;49.394;8.434;2023-06-24T00:19:22;7.43;;;5.00;;
19816;SDS011;68323;49.394;8.434;2023-06-24T00:21:51;7.43;;;5.23;;
19816;SDS011;68323;49.394;8.434;2023-06-24T00:24:18;6.37;;;4.90;;
19816;SDS011;68323;49.394;8.434;2023-06-24T00:26:45;7.67;;;5.37;;
19816;SDS011;68323;49.394;8.434;2023-06-24T00:29:12;6.57;;;5.30;;
19816;SDS011;68323;49.394;8.434;2023-06-24T00:31:37;7.00;;;5.83;;
19816;SDS011;68323;49.394;8.434;2023-06-24T00:34:03;7.87;;;5.67;;
19816;SDS011;68323;49.394;8.434;2023-06-24T00:36:29;9.83;;;6.13;;
19816;SDS011;68323;49.394;8.434;2023-06-24T00:38:56;11.27;;;6.73;;
19816;SDS011;68323;49.394;8.434;2023-06-24T00:41:26;10.87;;;6.83;;
19816;SDS011;68323;49.394;8.434;2023-06-24T00:43:52;15.63;;;6.67;;
19816;SDS011;68323;49.394;8.434;2023-06-24T00:46:18;9.43;;;6.47;;
19816;SDS011;68323;49.394;8.434;2023-06-24T00:48:44;21.57;;;8.33;;
19816;SDS011;68323;49.394;8.434;2023-06-24T00:51:10;18.33;;;7.73;;
19816;SDS011;68323;49.394;8.434;2023-06-24T00:53:36;25.30;;;7.87;;
19816;SDS011;68323;49.394;8.434;2023-06-24T00:56:01;15.73;;;7.90;;
19816;SDS011;68323;49.394;8.434;2023-06-24T00:58:29;15.17;;;7.43;;
19816;SDS011;68323;49.394;8.434;2023-06-24T01:00:56;15.40;;;7.50;;
19816;SDS011;68323;49.394;8.434;2023-06-24T01:03:25;11.60;;;7.43;;
19816;SDS011;68323;49.394;8.434;2023-06-24T01:05:52;16.60;;;7.77;;
19816;SDS011;68323;49.394;8.434;2023-06-24T01:08:19;12.70;;;7.23;;
19816;SDS011;68323;49.394;8.434;2023-06-24T01:10:47;10.43;;;7.03;;
19816;SDS011;68323;49.394;8.434;2023-06-24T01:13:16;13.60;;;7.43;;
19816;SDS011;68323;49.394;8.434;2023-06-24T01:15:42;10.83;;;7.77;;
19816;SDS011;68323;49.394;8.434;2023-06-24T01:23:42;14.40;;;8.00;;
19816;SDS011;68323;49.394;8.434;2023-06-24T01:32:15;8.83;;;7.77;;
19816;SDS011;68323;49.394;8.434;2023-06-24T01:34:53;13.93;;;7.90;;
19816;SDS011;68323;49.394;8.434;2023-06-24T01:37:31;10.30;;;7.60;;
19816;SDS011;68323;49.394;8.434;2023-06-24T01:42:50;9.50;;;7.80;;
19816;SDS011;68323;49.394;8.434;2023-06-24T01:45:16;14.23;;;8.10;;
19816;SDS011;68323;49.394;8.434;2023-06-24T01:47:47;14.87;;;8.33;;
19816;SDS011;68323;49.394;8.434;2023-06-24T01:50:15;16.53;;;8.67;;
19816;SDS011;68323;49.394;8.434;2023-06-24T01:52:44;15.47;;;8.57;;
19816;SDS011;68323;49.394;8.434;2023-06-24T01:55:11;13.83;;;7.90;;
19816;SDS011;68323;49.394;8.434;2023-06-24T01:57:42;13.67;;;8.47;;
19816;SDS011;68323;49.394;8.434;2023-06-24T02:00:09;15.50;;;9.57;;
19816;SDS011;68323;49.394;8.434;2023-06-24T02:02:36;17.30;;;9.57;;
19816;SDS011;68323;49.394;8.434;2023-06-24T02:05:03;19.10;;;9.57;;
19816;SDS011;68323;49.394;8.434;2023-06-24T02:07:31;17.17;;;8.50;;
19816;SDS011;68323;49.394;8.434;2023-06-24T02:09:58;15.93;;;8.50;;
19816;SDS011;68323;49.394;8.434;2023-06-24T02:12:25;19.67;;;8.63;;
19816;SDS011;68323;49.394;8.434;2023-06-24T02:14:54;16.03;;;8.43;;
19816;SDS011;68323;49.394;8.434;2023-06-24T02:17:20;21.30;;;9.30;;
19816;SDS011;68323;49.394;8.434;2023-06-24T02:19:48;18.83;;;9.70;;
19816;SDS011;68323;49.394;8.434;2023-06-24T02:22:15;19.70;;;9.83;;
19816;SDS011;68323;49.394;8.434;2023-06-24T02:24:42;24.63;;;10.37;;
19816;SDS011;68323;49.394;8.434;2023-06-24T02:27:08;24.43;;;10.47;;
19816;SDS011;68323;49.394;8.434;2023-06-24T02:29:37;21.30;;;10.57;;
19816;SDS011;68323;49.394;8.434;2023-06-24T02:32:04;22.93;;;11.20;;
19816;SDS011;68323;49.394;8.434;2023-06-24T02:34:30;21.90;;;10.37;;
19816;SDS011;68323;49.394;8.434;2023-06-24T02:36:56;26.23;;;11.03;;
19816;SDS011;68323;49.394;8.434;2023-06-24T02:39:21;19.00;;;10.07;;
19816;SDS011;68323;49.394;8.434;2023-06-24T02:41:47;16.73;;;10.00;;
19816;SDS011;68323;49.394;8.434;2023-06-24T02:44:14;17.90;;;9.03;;
19816;SDS011;68323;49.394;8.434;2023-06-24T02:46:40;16.47;;;9.57;;
19816;SDS011;68323;49.394;8.434;2023-06-24T02:49:09;17.40;;;9.47;;
19816;SDS011;68323;49.394;8.434;2023-06-24T02:51:38;12.53;;;7.90;;
19816;SDS011;68323;49.394;8.434;2023-06-24T02:54:04;13.30;;;8.20;;
19816;SDS011;68323;49.394;8.434;2023-06-24T02:56:31;15.23;;;8.73;;
19816;SDS011;68323;49.394;8.434;2023-06-24T02:58:57;10.43;;;8.53;;
19816;SDS011;68323;49.394;8.434;2023-06-24T03:01:22;11.50;;;8.07;;
19816;SDS011;68323;49.394;8.434;2023-06-24T03:03:54;11.43;;;7.87;;
19816;SDS011;68323;49.394;8.434;2023-06-24T03:06:20;11.67;;;8.07;;
19816;SDS011;68323;49.394;8.434;2023-06-24T03:08:47;13.93;;;8.23;;
19816;SDS011;68323;49.394;8.434;2023-06-24T03:11:14;15.63;;;8.33;;
19816;SDS011;68323;49.394;8.434;2023-06-24T03:13:41;15.67;;;7.87;;
19816;SDS011;68323;49.394;8.434;2023-06-24T03:16:07;18.17;;;8.33;;
19816;SDS011;68323;49.394;8.434;2023-06-24T03:18:37;14.93;;;8.70;;
19816;SDS011;68323;49.394;8.434;2023-06-24T03:21:05;13.57;;;7.90;;
19816;SDS011;68323;49.394;8.434;2023-06-24T03:23:31;10.17;;;8.67;;
19816;SDS011;68323;49.394;8.434;2023-06-24T03:25:57;13.20;;;8.40;;
19816;SDS011;68323;49.394;8.434;2023-06-24T03:28:22;12.17;;;8.40;;
19816;SDS011;68323;49.394;8.434;2023-06-24T03:30:48;12.20;;;8.13;;
19816;SDS011;68323;49.394;8.434;2023-06-24T03:33:14;16.30;;;8.73;;
19816;SDS011;68323;49.394;8.434;2023-06-24T03:35:42;14.17;;;9.40;;
19816;SDS011;68323;49.394;8.434;2023-06-24T03:38:08;13.80;;;8.87;;
19816;SDS011;68323;49.394;8.434;2023-06-24T03:40:33;13.93;;;8.57;;
19816;SDS011;68323;49.394;8.434;2023-06-24T03:42:59;14.77;;;8.77;;
19816;SDS011;68323;49.394;8.434;2023-06-24T03:45:25;17.57;;;8.57;;
19816;SDS011;68323;49.394;8.434;2023-06-24T03:47:51;11.67;;;8.50;;
19816;SDS011;68323;49.394;8.434;2023-06-24T03:50:16;13.63;;;8.50;;
19816;SDS011;68323;49.394;8.434;2023-06-24T03:52:42;11.93;;;8.20;;
19816;SDS011;68323;49.394;8.434;2023-06-24T03:55:09;12.73;;;9.17;;
19816;SDS011;68323;49.394;8.434;2023-06-24T03:57:36;16.50;;;9.87;;
19816;SDS011;68323;49.394;8.434;2023-06-24T04:00:02;21.07;;;9.67;;
19816;SDS011;68323;49.394;8.434;2023-06-24T04:02:37;15.57;;;8.90;;
19816;SDS011;68323;49.394;8.434;2023-06-24T04:05:03;14.07;;;9.20;;
19816;SDS011;68323;49.394;8.434;2023-06-24T04:07:31;14.43;;;9.00;;
19816;SDS011;68323;49.394;8.434;2023-06-24T04:09:56;14.60;;;9.07;;
19816;SDS011;68323;49.394;8.434;2023-06-24T04:12:22;11.33;;;8.70;;
19816;SDS011;68323;49.394;8.434;2023-06-24T04:14:48;15.00;;;8.73;;
19816;SDS011;68323;49.394;8.434;2023-06-24T04:17:14;13.40;;;9.13;;
19816;SDS011;68323;49.394;8.434;2023-06-24T04:19:39;11.57;;;8.57;;
19816;SDS011;68323;49.394;8.434;2023-06-24T04:22:05;17.77;;;8.60;;
19816;SDS011;68323;49.394;8.434;2023-06-24T04:24:31;13.93;;;8.30;;
19816;SDS011;68323;49.394;8.434;2023-06-24T04:26:57;11.80;;;9.20;;
19816;SDS011;68323;49.394;8.434;2023-06-24T04:29:23;14.83;;;8.93;;
19816;SDS011;68323;49.394;8.434;2023-06-24T04:31:48;16.93;;;8.47;;
19816;SDS011;68323;49.394;8.434;2023-06-24T04:34:14;14.83;;;8.90;;
19816;SDS011;68323;49.394;8.434;2023-06-24T04:36:39;18.37;;;8.83;;
19816;SDS011;68323;49.394;8.434;2023-06-24T04:39:05;14.40;;;9.10;;
19816;SDS011;68323;49.394;8.434;2023-06-24T04:41:30;18.13;;;9.20;;
19816;SDS011;68323;49.394;8.434;2023-06-24T04:43:57;21.67;;;9.67;;
19816;SDS011;68323;49.394;8.434;2023-06-24T04:46:23;20.00;;;9.40;;
19816;SDS011;68323;49.394;8.434;2023-06-24T04:48:48;15.60;;;9.13;;
19816;SDS011;68323;49.394;8.434;2023-06-24T04:51:14;16.07;;;8.87;;
19816;SDS011;68323;49.394;8.434;2023-06-24T04:53:40;16.90;;;8.47;;
19816;SDS011;68323;49.394;8.434;2023-06-24T04:56:05;12.63;;;9.07;;
19816;SDS011;68323;49.394;8.434;2023-06-24T04:58:31;13.57;;;8.97;;
19816;SDS011;68323;49.394;8.434;2023-06-24T05:00:57;14.60;;;9.33;;
19816;SDS011;68323;49.394;8.434;2023-06-24T05:03:24;15.67;;;9.07;;
19816;SDS011;68323;49.394;8.434;2023-06-24T05:05:49;15.57;;;9.10;;
19816;SDS011;68323;49.394;8.434;2023-06-24T05:08:15;15.53;;;9.57;;
19816;SDS011;68323;49.394;8.434;2023-06-24T05:10:40;12.13;;;9.10;;
19816;SDS011;68323;49.394;8.434;2023-06-24T05:13:06;10.90;;;8.67;;
19816;SDS011;68323;49.394;8.434;2023-06-24T05:15:31;14.17;;;8.90;;
19816;SDS011;68323;49.394;8.434;2023-06-24T05:17:57;11.93;;;8.47;;
19816;SDS011;68323;49.394;8.434;2023-06-24T05:20:22;11.03;;;8.53;;
19816;SDS011;68323;49.394;8.434;2023-06-24T05:22:48;24.90;;;9.40;;
19816;SDS011;68323;49.394;8.434;2023-06-24T05:25:14;13.73;;;8.30;;
19816;SDS011;68323;49.394;8.434;2023-06-24T05:27:39;11.57;;;7.70;;
19816;SDS011;68323;49.394;8.434;2023-06-24T05:30:05;9.20;;;7.20;;
19816;SDS011;68323;49.394;8.434;2023-06-24T05:32:31;10.68;;;7.28;;
19816;SDS011;68323;49.394;8.434;2023-06-24T05:34:56;14.60;;;7.00;;
19816;SDS011;68323;49.394;8.434;2023-06-24T05:37:22;10.82;;;6.85;;
19816;SDS011;68323;49.394;8.434;2023-06-24T05:39:47;8.18;;;7.10;;
19816;SDS011;68323;49.394;8.434;2023-06-24T05:42:13;10.20;;;6.40;;
19816;SDS011;68323;49.394;8.434;2023-06-24T05:44:39;10.27;;;6.40;;
19816;SDS011;68323;49.394;8.434;2023-06-24T05:47:04;11.63;;;6.25;;
19816;SDS011;68323;49.394;8.434;2023-06-24T05:49:30;10.68;;;5.88;;
19816;SDS011;68323;49.394;8.434;2023-06-24T05:51:56;8.93;;;5.65;;
19816;SDS011;68323;49.394;8.434;2023-06-24T05:54:22;7.13;;;5.57;;
19816;SDS011;68323;49.394;8.434;2023-06-24T05:56:48;10.40;;;6.10;;
19816;SDS011;68323;49.394;8.434;2023-06-24T05:59:13;7.63;;;5.63;;
19816;SDS011;68323;49.394;8.434;2023-06-24T06:01:39;10.98;;;5.68;;
19816;SDS011;68323;49.394;8.434;2023-06-24T06:04:04;12.23;;;6.43;;
19816;SDS011;68323;49.394;8.434;2023-06-24T06:06:30;7.88;;;6.07;;
19816;SDS011;68323;49.394;8.434;2023-06-24T06:08:56;12.82;;;5.90;;
19816;SDS011;68323;49.394;8.434;2023-06-24T06:11:22;6.88;;;6.00;;
19816;SDS011;68323;49.394;8.434;2023-06-24T06:13:48;5.75;;;4.72;;
19816;SDS011;68323;49.394;8.434;2023-06-24T06:16:13;6.63;;;5.10;;
19816;SDS011;68323;49.394;8.434;2023-06-24T06:18:39;6.30;;;5.10;;
19816;SDS011;68323;49.394;8.434;2023-06-24T06:21:04;8.40;;;5.57;;
19816;SDS011;68323;49.394;8.434;2023-06-24T06:23:30;9.63;;;5.20;;
19816;SDS011;68323;49.394;8.434;2023-06-24T06:25:55;6.30;;;5.10;;
19816;SDS011;68323;49.394;8.434;2023-06-24T06:28:21;5.10;;;4.53;;
19816;SDS011;68323;49.394;8.434;2023-06-24T06:30:46;6.53;;;5.00;;
19816;SDS011;68323;49.394;8.434;2023-06-24T06:33:12;5.82;;;5.00;;
19816;SDS011;68323;49.394;8.434;2023-06-24T06:35:37;8.05;;;4.88;;
19816;SDS011;68323;49.394;8.434;2023-06-24T06:38:04;9.50;;;5.43;;
19816;SDS011;68323;49.394;8.434;2023-06-24T06:40:30;6.57;;;5.20;;
19816;SDS011;68323;49.394;8.434;2023-06-24T06:42:55;5.68;;;4.57;;
19816;SDS011;68323;49.394;8.434;2023-06-24T06:45:21;7.25;;;4.75;;
19816;SDS011;68323;49.394;8.434;2023-06-24T06:47:47;5.30;;;4.75;;
19816;SDS011;68323;49.394;8.434;2023-06-24T06:50:14;5.63;;;4.30;;
19816;SDS011;68323;49.394;8.434;2023-06-24T06:52:39;5.25;;;4.75;;
19816;SDS011;68323;49.394;8.434;2023-06-24T06:55:05;5.20;;;4.18;;
19816;SDS011;68323;49.394;8.434;2023-06-24T06:57:30;4.22;;;3.83;;
19816;SDS011;68323;49.394;8.434;2023-06-24T06:59:56;6.70;;;4.53;;
19816;SDS011;68323;49.394;8.434;2023-06-24T07:02:22;7.57;;;4.80;;
19816;SDS011;68323;49.394;8.434;2023-06-24T07:04:48;7.07;;;4.20;;
19816;SDS011;68323;49.394;8.434;2023-06-24T07:07:15;4.22;;;3.83;;
19816;SDS011;68323;49.394;8.434;2023-06-24T07:09:41;8.88;;;4.63;;
19816;SDS011;68323;49.394;8.434;2023-06-24T07:12:06;7.20;;;4.15;;
19816;SDS011;68323;49.394;8.434;2023-06-24T07:14:32;11.15;;;5.78;;
19816;SDS011;68323;49.394;8.434;2023-06-24T07:16:58;5.65;;;4.50;;
19816;SDS011;68323;49.394;8.434;2023-06-24T07:19:23;6.15;;;4.65;;
19816;SDS011;68323;49.394;8.434;2023-06-24T07:21:49;7.30;;;4.35;;
19816;SDS011;68323;49.394;8.434;2023-06-24T07:24:14;7.10;;;4.63;;
19816;SDS011;68323;49.394;8.434;2023-06-24T07:26:40;5.70;;;4.05;;
19816;SDS011;68323;49.394;8.434;2023-06-24T07:29:06;6.32;;;3.90;;
19816;SDS011;68323;49.394;8.434;2023-06-24T07:31:32;4.40;;;3.95;;
19816;SDS011;68323;49.394;8.434;2023-06-24T07:33:57;5.20;;;4.07;;
19816;SDS011;68323;49.394;8.434;2023-06-24T07:36:23;9.40;;;4.40;;
19816;SDS011;68323;49.394;8.434;2023-06-24T07:38:48;6.55;;;4.72;;
19816;SDS011;68323;49.394;8.434;2023-06-24T07:41:14;10.45;;;4.88;;
19816;SDS011;68323;49.394;8.434;2023-06-24T07:43:39;5.15;;;4.32;;
19816;SDS011;68323;49.394;8.434;2023-06-24T07:46:05;4.70;;;4.30;;
19816;SDS011;68323;49.394;8.434;2023-06-24T07:48:31;5.32;;;4.13;;
19816;SDS011;68323;49.394;8.434;2023-06-24T07:50:57;5.53;;;4.68;;
19816;SDS011;68323;49.394;8.434;2023-06-24T07:53:23;4.97;;;4.40;;
19816;SDS011;68323;49.394;8.434;2023-06-24T07:55:48;4.82;;;3.80;;
19816;SDS011;68323;49.394;8.434;2023-06-24T07:58:14;6.43;;;4.70;;
19816;SDS011;68323;49.394;8.434;2023-06-24T08:00:39;5.85;;;4.85;;
19816;SDS011;68323;49.394;8.434;2023-06-24T08:03:05;7.57;;;4.55;;
19816;SDS011;68323;49.394;8.434;2023-06-24T08:05:30;4.97;;;4.43;;
19816;SDS011;68323;49.394;8.434;2023-06-24T08:07:56;5.10;;;4.60;;
19816;SDS011;68323;49.394;8.434;2023-06-24T08:10:21;6.47;;;4.40;;
19816;SDS011;68323;49.394;8.434;2023-06-24T08:12:47;4.45;;;4.05;;
19816;SDS011;68323;49.394;8.434;2023-06-24T08:15:12;4.65;;;4.25;;
19816;SDS011;68323;49.394;8.434;2023-06-24T08:17:38;4.60;;;4.20;;
19816;SDS011;68323;49.394;8.434;2023-06-24T08:20:04;5.68;;;4.50;;
19816;SDS011;68323;49.394;8.434;2023-06-24T08:22:30;5.75;;;3.92;;
19816;SDS011;68323;49.394;8.434;2023-06-24T08:24:55;4.82;;;4.32;;
19816;SDS011;68323;49.394;8.434;2023-06-24T08:27:21;4.22;;;3.83;;
19816;SDS011;68323;49.394;8.434;2023-06-24T08:29:47;4.68;;;4.18;;
19816;SDS011;68323;49.394;8.434;2023-06-24T08:32:12;4.47;;;4.07;;
19816;SDS011;68323;49.394;8.434;2023-06-24T08:34:38;4.65;;;4.20;;
19816;SDS011;68323;49.394;8.434;2023-06-24T08:37:04;5.30;;;4.10;;
19816;SDS011;68323;49.394;8.434;2023-06-24T08:42:19;5.07;;;3.75;;
19816;SDS011;68323;49.394;8.434;2023-06-24T08:44:44;4.20;;;3.80;;
19816;SDS011;68323;49.394;8.434;2023-06-24T08:47:10;4.65;;;3.70;;
19816;SDS011;68323;49.394;8.434;2023-06-24T08:49:44;4.40;;;4.00;;
19816;SDS011;68323;49.394;8.434;2023-06-24T08:52:14;6.10;;;3.90;;
19816;SDS011;68323;49.394;8.434;2023-06-24T08:54:41;4.65;;;4.10;;
19816;SDS011;68323;49.394;8.434;2023-06-24T08:57:10;5.10;;;4.00;;
19816;SDS011;68323;49.394;8.434;2023-06-24T08:59:39;5.15;;;4.03;;
19816;SDS011;68323;49.394;8.434;2023-06-24T09:02:06;4.32;;;3.92;;
19816;SDS011;68323;49.394;8.434;2023-06-24T09:04:31;5.80;;;4.43;;
19816;SDS011;68323;49.394;8.434;2023-06-24T09:06:57;4.40;;;4.00;;
19816;SDS011;68323;49.394;8.434;2023-06-24T09:09:23;4.15;;;3.70;;
19816;SDS011;68323;49.394;8.434;2023-06-24T09:11:56;4.10;;;3.70;;
19816;SDS011;68323;49.394;8.434;2023-06-24T09:14:26;6.50;;;4.20;;
19816;SDS011;68323;49.394;8.434;2023-06-24T09:16:58;6.22;;;4.38;;
19816;SDS011;68323;49.394;8.434;2023-06-24T09:19:29;4.18;;;3.78;;
19816;SDS011;68323;49.394;8.434;2023-06-24T09:22:04;4.82;;;3.88;;
19816;SDS011;68323;49.394;8.434;2023-06-24T09:24:35;3.80;;;3.50;;
19816;SDS011;68323;49.394;8.434;2023-06-24T09:27:02;5.13;;;3.10;;
19816;SDS011;68323;49.394;8.434;2023-06-24T09:29:31;4.05;;;3.60;;
19816;SDS011;68323;49.394;8.434;2023-06-24T09:31:58;4.15;;;3.80;;
19816;SDS011;68323;49.394;8.434;2023-06-24T09:34:25;4.38;;;3.58;;
19816;SDS011;68323;49.394;8.434;2023-06-24T09:36:56;4.43;;;3.50;;
19816;SDS011;68323;49.394;8.434;2023-06-24T09:39:22;4.07;;;3.67;;
19816;SDS011;68323;49.394;8.434;2023-06-24T09:41:58;4.20;;;3.80;;
19816;SDS011;68323;49.394;8.434;2023-06-24T09:44:26;8.27;;;4.07;;
19816;SDS011;68323;49.394;8.434;2023-06-24T09:46:52;6.32;;;3.72;;
19816;SDS011;68323;49.394;8.434;2023-06-24T09:49:18;4.00;;;3.63;;
19816;SDS011;68323;49.394;8.434;2023-06-24T09:51:45;6.53;;;3.67;;
19816;SDS011;68323;49.394;8.434;2023-06-24T09:54:12;3.70;;;3.40;;
19816;SDS011;68323;49.394;8.434;2023-06-24T09:56:40;4.32;;;3.90;;
19816;SDS011;68323;49.394;8.434;2023-06-24T09:59:11;4.18;;;3.78;;
19816;SDS011;68323;49.394;8.434;2023-06-24T10:01:38;4.38;;;3.97;;
19816;SDS011;68323;49.394;8.434;2023-06-24T10:04:06;5.55;;;3.95;;
19816;SDS011;68323;49.394;8.434;2023-06-24T10:06:33;4.15;;;3.80;;
19816;SDS011;68323;49.394;8.434;2023-06-24T10:08:59;4.45;;;3.80;;
19816;SDS011;68323;49.394;8.434;2023-06-24T10:11:25;4.05;;;3.67;;
19816;SDS011;68323;49.394;8.434;2023-06-24T10:13:51;4.72;;;4.20;;
19816;SDS011;68323;49.394;8.434;2023-06-24T10:16:17;5.88;;;4.30;;
19816;SDS011;68323;49.394;8.434;2023-06-24T10:18:43;5.38;;;4.10;;
19816;SDS011;68323;49.394;8.434;2023-06-24T10:21:10;4.85;;;3.90;;
19816;SDS011;68323;49.394;8.434;2023-06-24T10:26:27;5.50;;;4.05;;
19816;SDS011;68323;49.394;8.434;2023-06-24T10:37:03;4.88;;;3.85;;
19816;SDS011;68323;49.394;8.434;2023-06-24T10:39:49;4.00;;;3.60;;
19816;SDS011;68323;49.394;8.434;2023-06-24T10:42:41;5.13;;;3.63;;
19816;SDS011;68323;49.394;8.434;2023-06-24T10:47:38;4.25;;;3.83;;
19816;SDS011;68323;49.394;8.434;2023-06-24T10:50:05;5.00;;;4.20;;
19816;SDS011;68323;49.394;8.434;2023-06-24T10:52:31;4.40;;;3.65;;
19816;SDS011;68323;49.394;8.434;2023-06-24T10:54:58;5.70;;;3.70;;
19816;SDS011;68323;49.394;8.434;2023-06-24T10:57:27;4.40;;;4.00;;
19816;SDS011;68323;49.394;8.434;2023-06-24T10:59:54;5.03;;;4.10;;
19816;SDS011;68323;49.394;8.434;2023-06-24T11:02:22;4.15;;;3.75;;
19816;SDS011;68323;49.394;8.434;2023-06-24T11:04:49;4.07;;;3.60;;
19816;SDS011;68323;49.394;8.434;2023-06-24T11:07:19;5.63;;;3.70;;
19816;SDS011;68323;49.394;8.434;2023-06-24T11:09:53;7.05;;;3.72;;
19816;SDS011;68323;49.394;8.434;2023-06-24T11:12:23;5.97;;;3.95;;
19816;SDS011;68323;49.394;8.434;2023-06-24T11:14:50;3.88;;;3.50;;
19816;SDS011;68323;49.394;8.434;2023-06-24T11:17:16;4.38;;;3.97;;
19816;SDS011;68323;49.394;8.434;2023-06-24T11:19:41;4.78;;;3.97;;
19816;SDS011;68323;49.394;8.434;2023-06-24T11:22:08;4.28;;;3.65;;
19816;SDS011;68323;49.394;8.434;2023-06-24T11:24:34;5.15;;;3.58;;
19816;SDS011;68323;49.394;8.434;2023-06-24T11:27:01;5.32;;;3.53;;
19816;SDS011;68323;49.394;8.434;2023-06-24T11:29:30;4.30;;;3.88;;
19816;SDS011;68323;49.394;8.434;2023-06-24T11:31:57;4.43;;;3.83;;
19816;SDS011;68323;49.394;8.434;2023-06-24T11:34:23;6.43;;;3.60;;
19816;SDS011;68323;49.394;8.434;2023-06-24T11:36:49;3.83;;;3.33;;
19816;SDS011;68323;49.394;8.434;2023-06-24T11:39:24;4.00;;;3.60;;
19816;SDS011;68323;49.394;8.434;2023-06-24T11:41:51;4.22;;;3.65;;
19816;SDS011;68323;49.394;8.434;2023-06-24T11:44:18;4.32;;;3.85;;
19816;SDS011;68323;49.394;8.434;2023-06-24T11:46:44;6.82;;;3.75;;
19816;SDS011;68323;49.394;8.434;2023-06-24T11:49:10;4.05;;;3.55;;
19816;SDS011;68323;49.394;8.434;2023-06-24T11:51:35;3.92;;;3.53;;
19816;SDS011;68323;49.394;8.434;2023-06-24T11:54:02;3.65;;;3.20;;
19816;SDS011;68323;49.394;8.434;2023-06-24T11:59:03;5.53;;;3.50;;
19816;SDS011;68323;49.394;8.434;2023-06-24T12:01:42;4.07;;;3.65;;
19816;SDS011;68323;49.394;8.434;2023-06-24T12:04:11;4.68;;;3.80;;
19816;SDS011;68323;49.394;8.434;2023-06-24T12:06:36;3.83;;;3.45;;
19816;SDS011;68323;49.394;8.434;2023-06-24T12:09:02;3.80;;;3.35;;
19816;SDS011;68323;49.394;8.434;2023-06-24T12:11:28;3.75;;;3.30;;
19816;SDS011;68323;49.394;8.434;2023-06-24T12:13:53;7.55;;;4.72;;
19816;SDS011;68323;49.394;8.434;2023-06-24T12:16:19;17.30;;;7.93;;
19816;SDS011;68323;49.394;8.434;2023-06-24T12:18:44;25.08;;;11.52;;
19816;SDS011;68323;49.394;8.434;2023-06-24T12:21:10;6.85;;;4.85;;
19816;SDS011;68323;49.394;8.434;2023-06-24T12:23:35;5.30;;;3.95;;
19816;SDS011;68323;49.394;8.434;2023-06-24T12:26:01;4.45;;;3.40;;
19816;SDS011;68323;49.394;8.434;2023-06-24T12:28:27;4.30;;;3.65;;
19816;SDS011;68323;49.394;8.434;2023-06-24T12:30:53;3.97;;;3.13;;
19816;SDS011;68323;49.394;8.434;2023-06-24T12:33:18;4.80;;;3.58;;
19816;SDS011;68323;49.394;8.434;2023-06-24T12:35:46;5.47;;;3.95;;
19816;SDS011;68323;49.394;8.434;2023-06-24T12:38:11;3.95;;;3.55;;
19816;SDS011;68323;49.394;8.434;2023-06-24T12:40:37;6.18;;;3.40;;
19816;SDS011;68323;49.394;8.434;2023-06-24T12:43:02;3.92;;;3.50;;
19816;SDS011;68323;49.394;8.434;2023-06-24T12:45:29;3.63;;;3.33;;
19816;SDS011;68323;49.394;8.434;2023-06-24T12:47:54;4.53;;;4.10;;
19816;SDS011;68323;49.394;8.434;2023-06-24T12:50:20;7.00;;;3.55;;
19816;SDS011;68323;49.394;8.434;2023-06-24T12:52:46;4.32;;;3.50;;
19816;SDS011;68323;49.394;8.434;2023-06-24T12:55:11;4.55;;;3.53;;
19816;SDS011;68323;49.394;8.434;2023-06-24T12:57:37;4.15;;;3.50;;
19816;SDS011;68323;49.394;8.434;2023-06-24T13:00:03;5.88;;;3.40;;
19816;SDS011;68323;49.394;8.434;2023-06-24T13:02:33;3.42;;;3.13;;
19816;SDS011;68323;49.394;8.434;2023-06-24T13:04:59;3.75;;;3.30;;
19816;SDS011;68323;49.394;8.434;2023-06-24T13:07:24;4.47;;;3.70;;
19816;SDS011;68323;49.394;8.434;2023-06-24T13:09:50;6.50;;;3.58;;
19816;SDS011;68323;49.394;8.434;2023-06-24T13:12:17;4.28;;;3.40;;
19816;SDS011;68323;49.394;8.434;2023-06-24T13:14:42;5.13;;;3.90;;
19816;SDS011;68323;49.394;8.434;2023-06-24T13:17:08;3.70;;;3.17;;
19816;SDS011;68323;49.394;8.434;2023-06-24T13:19:33;4.05;;;3.60;;
19816;SDS011;68323;49.394;8.434;2023-06-24T13:21:59;3.75;;;3.30;;
19816;SDS011;68323;49.394;8.434;2023-06-24T13:24:25;5.68;;;3.92;;
19816;SDS011;68323;49.394;8.434;2023-06-24T13:26:50;3.70;;;3.40;;
19816;SDS011;68323;49.394;8.434;2023-06-24T13:29:16;3.65;;;3.30;;
19816;SDS011;68323;49.394;8.434;2023-06-24T13:31:44;4.00;;;3.60;;
19816;SDS011;68323;49.394;8.434;2023-06-24T13:34:10;6.05;;;3.75;;
19816;SDS011;68323;49.394;8.434;2023-06-24T13:36:36;4.68;;;3.60;;
19816;SDS011;68323;49.394;8.434;2023-06-24T13:39:03;4.07;;;3.30;;
19816;SDS011;68323;49.394;8.434;2023-06-24T13:41:30;5.18;;;3.60;;
19816;SDS011;68323;49.394;8.434;2023-06-24T13:43:58;4.13;;;3.45;;
19816;SDS011;68323;49.394;8.434;2023-06-24T13:46:24;5.20;;;3.30;;
19816;SDS011;68323;49.394;8.434;2023-06-24T13:48:50;5.50;;;3.80;;
19816;SDS011;68323;49.394;8.434;2023-06-24T13:51:16;4.18;;;3.40;;
19816;SDS011;68323;49.394;8.434;2023-06-24T13:53:42;3.75;;;3.38;;
19816;SDS011;68323;49.394;8.434;2023-06-24T13:56:08;4.25;;;3.85;;
19816;SDS011;68323;49.394;8.434;2023-06-24T13:58:34;5.18;;;3.58;;
19816;SDS011;68323;49.394;8.434;2023-06-24T14:00:59;6.60;;;3.70;;
19816;SDS011;68323;49.394;8.434;2023-06-24T14:03:25;4.60;;;3.83;;
19816;SDS011;68323;49.394;8.434;2023-06-24T14:05:51;5.85;;;3.78;;
19816;SDS011;68323;49.394;8.434;2023-06-24T14:08:16;4.20;;;3.80;;
19816;SDS011;68323;49.394;8.434;2023-06-24T14:10:42;4.47;;;3.78;;
19816;SDS011;68323;49.394;8.434;2023-06-24T14:13:07;4.00;;;3.60;;
19816;SDS011;68323;49.394;8.434;2023-06-24T14:15:33;5.50;;;3.50;;
19816;SDS011;68323;49.394;8.434;2023-06-24T14:17:58;6.78;;;3.90;;
19816;SDS011;68323;49.394;8.434;2023-06-24T14:20:24;5.03;;;3.40;;
19816;SDS011;68323;49.394;8.434;2023-06-24T14:22:50;5.50;;;3.97;;
19816;SDS011;68323;49.394;8.434;2023-06-24T14:25:16;5.18;;;3.95;;
19816;SDS011;68323;49.394;8.434;2023-06-24T14:27:42;3.92;;;3.50;;
19816;SDS011;68323;49.394;8.434;2023-06-24T14:30:07;4.10;;;3.58;;
19816;SDS011;68323;49.394;8.434;2023-06-24T14:32:33;4.60;;;3.88;;
19816;SDS011;68323;49.394;8.434;2023-06-24T14:34:59;5.80;;;3.83;;
19816;SDS011;68323;49.394;8.434;2023-06-24T14:37:24;4.20;;;3.80;;
19816;SDS011;68323;49.394;8.434;2023-06-24T14:39:50;5.25;;;3.67;;
19816;SDS011;68323;49.394;8.434;2023-06-24T14:42:15;5.18;;;3.50;;
19816;SDS011;68323;49.394;8.434;2023-06-24T14:44:41;4.00;;;3.47;;
19816;SDS011;68323;49.394;8.434;2023-06-24T14:47:06;3.92;;;3.53;;
19816;SDS011;68323;49.394;8.434;2023-06-24T14:49:32;5.53;;;3.90;;
19816;SDS011;68323;49.394;8.434;2023-06-24T14:51:58;5.22;;;3.60;;
19816;SDS011;68323;49.394;8.434;2023-06-24T14:54:23;5.05;;;3.70;;
19816;SDS011;68323;49.394;8.434;2023-06-24T14:56:49;4.28;;;3.85;;
19816;SDS011;68323;49.394;8.434;2023-06-24T14:59:14;6.45;;;4.03;;
19816;SDS011;68323;49.394;8.434;2023-06-24T15:01:40;6.20;;;4.30;;
19816;SDS011;68323;49.394;8.434;2023-06-24T15:04:06;4.88;;;3.95;;
19816;SDS011;68323;49.394;8.434;2023-06-24T15:06:34;7.70;;;6.28;;
19816;SDS011;68323;49.394;8.434;2023-06-24T15:09:00;7.15;;;4.72;;
19816;SDS011;68323;49.394;8.434;2023-06-24T15:11:25;7.38;;;6.07;;
19816;SDS011;68323;49.394;8.434;2023-06-24T15:13:51;4.95;;;4.20;;